Tara — XUAB3 — position and weather

sailwx.info

Track history (hours):
 
Tides and Currents Weather Stations Pressure Air Temp Water Temp Dewpoint Dewpoint Depression Visibility Wind Speed Wind Dir Waves Ship Positions

Tara

Last reported at 2014-Oct-18 15:33 UTC. Time now 2014-Oct-25 14:40 UTC.
Position N 35°21' E 026°19'.

Length 82 m; draft 5.2 m.

Type: Ship. MMSI: 515410000.

Date/timePositionNaut miles runAvg speedWind from/ knotsBaromVisibWave heightAir tempDewpointWater temp
2014-Oct-18 15:33N 35°21' E 026°19'2010.0
2014-Oct-18 13:33N 35°26' E 025°56'1110.8
2014-Oct-18 12:33N 35°28' E 025°43'1110.7
2014-Oct-18 11:33N 35°30' E 025°30'1110.5
2014-Oct-18 10:33N 35°33' E 025°17'1010.3
2014-Oct-18 09:33N 35°35' E 025°05'1110.8
2014-Oct-18 08:33N 35°39' E 024°52'1210.7
2014-Oct-18 07:27N 35°43' E 024°38'1010.4
2014-Oct-18 06:30N 35°46' E 024°27'1210.3
2014-Oct-18 05:21N 35°49' E 024°13'1210.8
2014-Oct-18 04:14N 35°52' E 023°58'811.2
2014-Oct-18 03:33N 35°54' E 023°50'  
Track history (hours):
 
Tides and Currents Weather Stations Pressure Air Temp Water Temp Dewpoint Dewpoint Depression Visibility Wind Speed Wind Dir Waves Ship Positions

Tara

Last reported at 2014-Oct-18 15:33 UTC. Time now 2014-Oct-25 14:40 UTC.
Position N 35°21' E 026°19'.

Length 82 m; draft 5.2 m.

Type: Ship. MMSI: 515410000.

Date/timePositionNaut miles runAvg speedWind from/ knotsBaromVisibWave heightAir tempDewpointWater temp
2014-Oct-18 15:33N 35°21' E 026°19'2010.0
2014-Oct-18 13:33N 35°26' E 025°56'1110.8
2014-Oct-18 12:33N 35°28' E 025°43'1110.7
2014-Oct-18 11:33N 35°30' E 025°30'1110.5
2014-Oct-18 10:33N 35°33' E 025°17'1010.3
2014-Oct-18 09:33N 35°35' E 025°05'1110.8
2014-Oct-18 08:33N 35°39' E 024°52'1210.7
2014-Oct-18 07:27N 35°43' E 024°38'1010.4
2014-Oct-18 06:30N 35°46' E 024°27'1210.3
2014-Oct-18 05:21N 35°49' E 024°13'1210.8
2014-Oct-18 04:14N 35°52' E 023°58'811.2
2014-Oct-18 03:33N 35°54' E 023°50'  

Dump ship's entire track history